createdAt,value
2022-08-19T00:02:11.560Z,17.51
2022-08-19T00:04:41.187Z,17.48
2022-08-19T00:07:11.322Z,17.52
2022-08-19T00:09:38.677Z,17.42
2022-08-19T00:12:06.742Z,17.43
2022-08-19T00:14:33.576Z,17.36
2022-08-19T00:17:02.006Z,17.40
2022-08-19T00:19:29.497Z,17.44
2022-08-19T00:21:57.504Z,17.51
2022-08-19T00:24:24.522Z,17.56
2022-08-19T00:26:56.110Z,17.55
2022-08-19T00:29:24.911Z,17.47
2022-08-19T00:31:57.367Z,17.47
2022-08-19T00:34:24.765Z,17.40
2022-08-19T00:36:51.845Z,17.35
2022-08-19T00:39:19.331Z,17.33
2022-08-19T00:41:49.759Z,17.30
2022-08-19T00:44:22.716Z,17.27
2022-08-19T00:46:58.554Z,17.22
2022-08-19T00:49:33.248Z,17.14
2022-08-19T00:52:13.091Z,17.06
2022-08-19T00:54:43.977Z,17.04
2022-08-19T00:57:16.127Z,16.94
2022-08-19T00:59:56.411Z,16.94
2022-08-19T01:02:31.134Z,16.88
2022-08-19T01:04:58.380Z,16.83
2022-08-19T01:07:25.728Z,16.81
2022-08-19T01:09:53.222Z,16.80
2022-08-19T01:12:20.356Z,16.70
2022-08-19T01:14:48.871Z,16.65
2022-08-19T01:17:17.164Z,16.63
2022-08-19T01:19:47.857Z,16.71
2022-08-19T01:22:35.987Z,16.82
2022-08-19T01:25:03.491Z,16.72
2022-08-19T01:27:43.720Z,16.74
2022-08-19T01:30:16.602Z,16.72
2022-08-19T01:32:44.803Z,16.68
2022-08-19T01:35:19.791Z,16.51
2022-08-19T01:37:57.317Z,16.44
2022-08-19T01:40:28.226Z,16.50
2022-08-19T01:42:55.543Z,16.57
2022-08-19T01:45:25.598Z,16.61
2022-08-19T01:48:01.952Z,16.61
2022-08-19T01:50:31.970Z,16.56
2022-08-19T01:53:02.390Z,16.58
2022-08-19T01:55:36.167Z,16.53
2022-08-19T01:58:15.620Z,16.55
2022-08-19T02:00:43.018Z,16.49
2022-08-19T02:03:13.122Z,16.48
2022-08-19T02:05:43.914Z,16.44
2022-08-19T02:08:15.129Z,16.39
2022-08-19T02:10:47.736Z,16.47
2022-08-19T02:13:14.869Z,16.51
2022-08-19T02:15:42.092Z,16.47
2022-08-19T02:18:11.607Z,16.38
2022-08-19T02:20:40.047Z,16.41
2022-08-19T02:23:13.365Z,16.35
2022-08-19T02:25:42.993Z,16.28
2022-08-19T02:28:14.505Z,16.31
2022-08-19T02:30:43.928Z,16.24
2022-08-19T02:33:11.783Z,16.22
2022-08-19T02:35:43.765Z,16.16
2022-08-19T02:38:28.982Z,16.13
2022-08-19T02:41:01.640Z,16.23
2022-08-19T02:43:33.833Z,16.21
2022-08-19T02:46:03.130Z,16.24
2022-08-19T02:48:29.976Z,16.28
2022-08-19T02:50:56.743Z,16.19
2022-08-19T02:53:25.915Z,16.21
2022-08-19T02:55:52.750Z,16.20
2022-08-19T02:58:20.438Z,16.27
2022-08-19T03:00:50.449Z,16.23
2022-08-19T03:03:18.244Z,16.25
2022-08-19T03:05:49.232Z,16.19
2022-08-19T03:08:23.035Z,16.18
2022-08-19T03:10:49.895Z,16.14
2022-08-19T03:13:19.086Z,16.11
2022-08-19T03:15:48.342Z,16.15
2022-08-19T03:18:16.080Z,16.07
2022-08-19T03:20:56.899Z,16.01
2022-08-19T03:23:24.845Z,15.90
2022-08-19T03:25:58.451Z,15.90
2022-08-19T03:28:42.346Z,15.90
2022-08-19T03:31:41.658Z,15.91
2022-08-19T03:34:05.509Z,15.84
2022-08-19T03:36:34.910Z,15.75
2022-08-19T03:39:02.266Z,15.82
2022-08-19T03:41:34.377Z,15.79
2022-08-19T03:44:17.646Z,15.87
2022-08-19T03:46:48.102Z,15.76
2022-08-19T03:49:15.179Z,15.80
2022-08-19T03:51:43.494Z,15.86
2022-08-19T03:54:13.823Z,15.83
2022-08-19T03:56:43.753Z,15.73
2022-08-19T03:59:14.399Z,15.70
2022-08-19T04:01:42.238Z,15.72
2022-08-19T04:04:10.016Z,15.77
2022-08-19T04:06:39.630Z,15.79
2022-08-19T04:09:10.414Z,15.77
2022-08-19T04:11:46.799Z,15.79
2022-08-19T04:14:17.219Z,15.79
2022-08-19T04:16:45.540Z,15.71
2022-08-19T04:19:17.549Z,15.71
2022-08-19T04:21:47.600Z,15.66
2022-08-19T04:24:15.230Z,15.70
2022-08-19T04:26:42.510Z,15.69
2022-08-19T04:29:16.025Z,15.66
2022-08-19T04:31:45.298Z,15.67
2022-08-19T04:34:16.086Z,15.66
2022-08-19T04:36:45.475Z,15.69
2022-08-19T04:39:16.620Z,15.72
2022-08-19T04:42:03.637Z,15.69
2022-08-19T04:44:35.830Z,15.71
2022-08-19T04:47:11.016Z,15.66
2022-08-19T04:49:41.371Z,15.63
2022-08-19T04:52:09.371Z,15.63
2022-08-19T04:54:38.806Z,15.72
2022-08-19T04:57:11.255Z,15.74
2022-08-19T04:59:39.724Z,15.72
2022-08-19T05:02:08.801Z,15.74
2022-08-19T05:04:36.777Z,15.78
2022-08-19T05:07:03.497Z,15.70
2022-08-19T05:09:52.578Z,15.69
2022-08-19T05:12:21.177Z,15.75
2022-08-19T05:14:48.962Z,15.81
2022-08-19T05:17:37.491Z,16.10
2022-08-19T05:20:25.042Z,16.56
2022-08-19T05:22:51.824Z,16.93
2022-08-19T05:25:20.995Z,17.26
2022-08-19T05:27:50.934Z,17.30
2022-08-19T05:30:18.818Z,17.32
2022-08-19T05:33:01.025Z,17.40
2022-08-19T05:35:29.127Z,17.64
2022-08-19T05:38:04.125Z,17.74
2022-08-19T05:40:30.970Z,18.02
2022-08-19T05:42:57.547Z,18.36
2022-08-19T05:45:24.214Z,18.59
2022-08-19T05:47:50.868Z,18.74
2022-08-19T05:50:18.514Z,18.95
2022-08-19T05:52:54.280Z,19.08
2022-08-19T05:55:21.328Z,19.24
2022-08-19T05:57:49.389Z,19.47
2022-08-19T06:00:18.664Z,19.14
2022-08-19T06:02:48.403Z,19.12
2022-08-19T06:05:15.630Z,19.51
2022-08-19T06:07:42.274Z,19.35
2022-08-19T06:10:11.760Z,19.27
2022-08-19T06:12:39.593Z,19.14
2022-08-19T06:15:15.325Z,18.96
2022-08-19T06:17:45.304Z,18.75
2022-08-19T06:20:15.942Z,18.76
2022-08-19T06:22:44.991Z,18.55
2022-08-19T06:25:12.653Z,18.72
2022-08-19T06:27:58.616Z,19.11
2022-08-19T06:30:27.656Z,19.13
2022-08-19T06:32:54.591Z,18.97
2022-08-19T06:35:21.483Z,18.94
2022-08-19T06:37:48.333Z,18.89
2022-08-19T06:40:17.850Z,18.70
2022-08-19T06:42:54.173Z,18.82
2022-08-19T06:45:34.960Z,18.95
2022-08-19T06:48:03.380Z,19.08
2022-08-19T06:50:32.790Z,19.00
2022-08-19T06:52:59.793Z,19.12
2022-08-19T06:55:35.061Z,19.11
2022-08-19T06:58:05.381Z,19.24
2022-08-19T07:00:34.822Z,19.22
2022-08-19T07:03:04.567Z,19.29
2022-08-19T07:05:45.415Z,19.39
2022-08-19T07:08:12.623Z,19.51
2022-08-19T07:10:44.854Z,19.45
2022-08-19T07:13:12.495Z,19.29
2022-08-19T07:15:39.797Z,19.26
2022-08-19T07:18:06.854Z,19.19
2022-08-19T07:20:33.786Z,19.26
2022-08-19T07:23:01.444Z,19.43
2022-08-19T07:25:34.084Z,19.34
2022-08-19T07:28:01.534Z,19.51
2022-08-19T07:30:28.630Z,19.64
2022-08-19T07:32:57.471Z,19.70
2022-08-19T07:35:24.748Z,19.71
2022-08-19T07:37:51.350Z,19.79
2022-08-19T07:40:18.106Z,20.04
2022-08-19T07:42:45.070Z,20.04
2022-08-19T07:45:12.794Z,20.02
2022-08-19T07:47:49.047Z,20.05
2022-08-19T07:50:20.781Z,20.08
2022-08-19T07:52:50.808Z,20.09
2022-08-19T07:55:40.625Z,20.28
2022-08-19T07:58:15.624Z,20.37
2022-08-19T08:00:44.349Z,20.38
2022-08-19T08:03:12.201Z,20.33
2022-08-19T08:06:00.706Z,20.45
2022-08-19T08:08:48.172Z,20.46
2022-08-19T08:11:20.713Z,20.37
2022-08-19T08:14:00.869Z,20.47
2022-08-19T08:16:34.655Z,20.57
2022-08-19T08:19:01.782Z,20.56
2022-08-19T08:21:28.961Z,20.59
2022-08-19T08:23:56.765Z,20.66
2022-08-19T08:26:25.952Z,20.74
2022-08-19T08:28:53.822Z,20.75
2022-08-19T08:31:21.641Z,20.73
2022-08-19T08:33:51.161Z,20.77
2022-08-19T08:36:18.380Z,20.90
2022-08-19T08:38:49.506Z,20.82
2022-08-19T08:41:35.889Z,20.74
2022-08-19T08:44:07.009Z,20.60
2022-08-19T08:46:41.056Z,20.70
2022-08-19T08:49:26.569Z,20.70
2022-08-19T08:52:05.277Z,20.70
2022-08-19T08:54:40.346Z,20.58
2022-08-19T08:57:40.682Z,20.61
2022-08-19T09:00:15.620Z,20.57
2022-08-19T09:02:45.223Z,20.61
2022-08-19T09:05:25.792Z,20.52
2022-08-19T09:08:06.876Z,20.67
2022-08-19T09:10:44.430Z,20.75
2022-08-19T09:13:53.219Z,20.66
2022-08-19T09:16:27.887Z,20.57
2022-08-19T09:18:59.875Z,20.69
2022-08-19T09:21:33.037Z,20.66
2022-08-19T09:24:03.418Z,20.59
2022-08-19T09:26:47.459Z,20.48
2022-08-19T09:29:22.594Z,20.39
2022-08-19T09:31:52.336Z,20.46
2022-08-19T09:34:22.149Z,20.46
2022-08-19T09:36:55.402Z,20.52
2022-08-19T09:39:22.613Z,20.73
2022-08-19T09:41:50.752Z,21.02
2022-08-19T09:44:18.212Z,21.07
2022-08-19T09:46:47.968Z,21.30
2022-08-19T09:49:18.368Z,21.38
2022-08-19T09:51:50.827Z,21.28
2022-08-19T09:54:23.408Z,21.29
2022-08-19T09:56:51.449Z,21.30
2022-08-19T09:59:18.202Z,21.48
2022-08-19T10:01:45.250Z,21.57
2022-08-19T10:04:19.655Z,21.54
2022-08-19T10:06:53.478Z,21.84
2022-08-19T10:09:33.659Z,22.18
2022-08-19T10:12:02.572Z,22.39
2022-08-19T10:14:29.861Z,22.46
2022-08-19T10:16:57.519Z,22.46
2022-08-19T10:19:33.427Z,22.35
2022-08-19T10:22:04.616Z,22.12
2022-08-19T10:24:31.915Z,22.07
2022-08-19T10:27:00.042Z,22.18
2022-08-19T10:29:32.693Z,22.37
2022-08-19T10:32:09.714Z,22.60
2022-08-19T10:34:48.354Z,22.86
2022-08-19T10:37:23.525Z,23.03
2022-08-19T10:39:52.083Z,23.33
2022-08-19T10:42:19.751Z,23.62
2022-08-19T10:44:47.759Z,23.70
2022-08-19T10:47:25.434Z,23.97
2022-08-19T10:50:15.855Z,24.41
2022-08-19T10:52:49.182Z,24.72
2022-08-19T10:55:42.916Z,24.55
2022-08-19T10:58:15.357Z,24.76
2022-08-19T11:00:46.688Z,24.86
2022-08-19T11:03:13.759Z,24.82
2022-08-19T11:05:43.670Z,24.91
2022-08-19T11:08:22.789Z,24.82
2022-08-19T11:11:00.327Z,24.69
2022-08-19T11:13:29.557Z,24.69
2022-08-19T11:16:08.208Z,24.74
2022-08-19T11:18:41.560Z,24.71
2022-08-19T11:21:24.793Z,24.78
2022-08-19T11:23:56.258Z,24.95
2022-08-19T11:26:24.170Z,25.26
2022-08-19T11:28:54.273Z,25.31
2022-08-19T11:31:24.818Z,25.11
2022-08-19T11:33:58.401Z,25.09
2022-08-19T11:36:25.213Z,25.23
2022-08-19T11:38:52.317Z,25.28
2022-08-19T11:41:24.503Z,25.69
2022-08-19T11:43:55.115Z,25.68
2022-08-19T11:46:24.866Z,25.82
2022-08-19T11:48:52.131Z,26.10
2022-08-19T11:51:25.702Z,26.32
2022-08-19T11:53:53.954Z,26.35
2022-08-19T11:56:22.404Z,26.21
2022-08-19T11:58:53.541Z,26.05
2022-08-19T12:01:23.485Z,26.14
2022-08-19T12:03:55.778Z,26.05
2022-08-19T12:06:31.030Z,26.04
2022-08-19T12:08:59.572Z,25.81
2022-08-19T12:11:28.737Z,25.41
2022-08-19T12:13:58.077Z,25.02
2022-08-19T12:16:29.025Z,24.71
2022-08-19T12:19:04.612Z,24.60
2022-08-19T12:21:34.167Z,24.27
2022-08-19T12:24:05.068Z,24.19
2022-08-19T12:26:32.503Z,24.20
2022-08-19T12:29:00.734Z,24.41
2022-08-19T12:31:29.843Z,24.85
2022-08-19T12:33:57.286Z,24.89
2022-08-19T12:36:26.037Z,24.82
2022-08-19T12:38:56.010Z,24.70
2022-08-19T12:41:26.123Z,24.69
2022-08-19T12:43:53.433Z,24.70
2022-08-19T12:46:22.253Z,24.75
2022-08-19T12:48:55.323Z,24.53
2022-08-19T12:51:22.985Z,24.74
2022-08-19T12:53:50.819Z,24.62
2022-08-19T12:56:22.304Z,24.57
2022-08-19T12:58:52.877Z,24.47
2022-08-19T13:01:23.035Z,24.33
2022-08-19T13:04:01.342Z,24.24
2022-08-19T13:06:32.053Z,24.22
2022-08-19T13:08:59.782Z,24.00
2022-08-19T13:11:26.870Z,24.25
2022-08-19T13:13:55.949Z,24.47
2022-08-19T13:16:23.023Z,24.75
2022-08-19T13:18:52.808Z,25.28
2022-08-19T13:21:22.623Z,25.65
2022-08-19T13:23:50.453Z,25.63
2022-08-19T13:26:18.658Z,25.68
2022-08-19T13:29:04.483Z,25.74
2022-08-19T13:31:52.709Z,25.74
2022-08-19T13:34:26.605Z,26.00
2022-08-19T13:36:58.302Z,26.56
2022-08-19T13:39:25.067Z,26.91
2022-08-19T13:41:52.520Z,26.38
2022-08-19T13:44:19.854Z,26.04
2022-08-19T13:46:53.903Z,26.32
2022-08-19T13:49:21.426Z,26.53
2022-08-19T13:51:48.292Z,26.31
2022-08-19T13:54:15.216Z,26.32
2022-08-19T13:56:46.926Z,26.01
2022-08-19T13:59:14.499Z,25.85
2022-08-19T14:01:42.393Z,25.92
2022-08-19T14:04:09.829Z,26.13
2022-08-19T14:06:36.850Z,26.65
2022-08-19T14:09:03.848Z,26.83
2022-08-19T14:11:30.901Z,26.68
2022-08-19T14:13:57.558Z,26.56
2022-08-19T14:16:24.284Z,26.46
2022-08-19T14:18:51.031Z,26.52
2022-08-19T14:21:21.998Z,26.57
2022-08-19T14:23:49.005Z,26.46
2022-08-19T14:26:18.426Z,26.88
2022-08-19T14:28:46.501Z,27.04
2022-08-19T14:31:17.557Z,26.75
2022-08-19T14:33:44.307Z,26.51
2022-08-19T14:36:11.173Z,26.56
2022-08-19T14:38:38.021Z,26.70
2022-08-19T14:41:10.586Z,26.75
2022-08-19T14:43:37.559Z,26.72
2022-08-19T14:46:06.139Z,26.56
2022-08-19T14:48:42.596Z,26.25
2022-08-19T14:51:10.727Z,26.06
2022-08-19T14:53:38.017Z,25.80
2022-08-19T14:56:20.382Z,25.24
2022-08-19T14:58:47.647Z,24.87
2022-08-19T15:01:15.050Z,24.63
2022-08-19T15:03:44.267Z,24.12
2022-08-19T15:06:12.692Z,23.50
2022-08-19T15:08:42.033Z,23.25
2022-08-19T15:11:10.896Z,23.02
2022-08-19T15:13:38.897Z,23.24
2022-08-19T15:16:06.153Z,23.65
2022-08-19T15:18:46.633Z,24.12
2022-08-19T15:21:26.794Z,24.17
2022-08-19T15:23:56.575Z,24.25
2022-08-19T15:26:23.836Z,24.41
2022-08-19T15:28:51.126Z,23.98
2022-08-19T15:31:28.328Z,23.68
2022-08-19T15:33:59.055Z,23.36
2022-08-19T15:36:27.151Z,23.14
2022-08-19T15:38:54.137Z,22.94
2022-08-19T15:41:28.995Z,22.74
2022-08-19T15:43:59.523Z,22.77
2022-08-19T15:46:29.229Z,22.61
2022-08-19T15:48:57.553Z,22.67
2022-08-19T15:51:30.368Z,22.65
2022-08-19T15:53:58.383Z,22.65
2022-08-19T15:56:27.471Z,22.61
2022-08-19T15:59:13.215Z,22.62
2022-08-19T16:01:58.629Z,22.57
2022-08-19T16:04:44.141Z,22.62
2022-08-19T16:07:12.701Z,22.55
2022-08-19T16:09:39.535Z,22.48
2022-08-19T16:12:06.827Z,22.36
2022-08-19T16:14:35.723Z,22.24
2022-08-19T16:17:03.209Z,22.15
2022-08-19T16:19:31.030Z,22.06
2022-08-19T16:21:57.864Z,21.86
2022-08-19T16:24:27.473Z,21.33
2022-08-19T16:26:55.562Z,20.97
2022-08-19T16:29:34.887Z,20.78
2022-08-19T16:32:10.309Z,20.61
2022-08-19T16:34:38.940Z,20.54
2022-08-19T16:37:05.720Z,20.80
2022-08-19T16:39:32.780Z,20.72
2022-08-19T16:41:59.747Z,20.80
2022-08-19T16:44:27.455Z,20.82
2022-08-19T16:46:58.730Z,20.75
2022-08-19T16:49:53.158Z,20.82
2022-08-19T16:52:16.492Z,20.80
2022-08-19T16:54:43.597Z,20.94
2022-08-19T16:57:12.027Z,21.09
2022-08-19T16:59:43.683Z,21.18
2022-08-19T17:02:22.490Z,21.40
2022-08-19T17:04:58.569Z,21.36
2022-08-19T17:07:27.812Z,21.24
2022-08-19T17:09:55.452Z,21.16
2022-08-19T17:12:31.549Z,21.08
2022-08-19T17:15:00.763Z,21.00
2022-08-19T17:17:29.410Z,20.95
2022-08-19T17:20:00.666Z,21.01
2022-08-19T17:22:28.962Z,20.92
2022-08-19T17:24:58.243Z,20.90
2022-08-19T17:27:26.968Z,20.90
2022-08-19T17:29:59.973Z,20.86
2022-08-19T17:32:27.287Z,20.83
2022-08-19T17:34:54.376Z,20.82
2022-08-19T17:37:21.369Z,20.74
2022-08-19T17:39:48.340Z,20.69
2022-08-19T17:42:16.595Z,20.57
2022-08-19T17:44:50.451Z,20.47
2022-08-19T17:47:19.594Z,20.45
2022-08-19T17:49:46.672Z,20.47
2022-08-19T17:52:13.568Z,20.50
2022-08-19T17:54:46.702Z,20.54
2022-08-19T17:57:14.145Z,20.47
2022-08-19T17:59:40.891Z,20.67
2022-08-19T18:02:10.363Z,20.50
2022-08-19T18:04:38.479Z,20.41
2022-08-19T18:07:06.326Z,20.38
2022-08-19T18:09:42.276Z,20.31
2022-08-19T18:12:15.632Z,20.25
2022-08-19T18:14:43.004Z,20.20
2022-08-19T18:17:13.454Z,20.18
2022-08-19T18:19:43.741Z,20.13
2022-08-19T18:22:23.543Z,20.12
2022-08-19T18:24:51.006Z,20.05
2022-08-19T18:27:17.950Z,20.02
2022-08-19T18:29:45.554Z,20.03
2022-08-19T18:32:12.940Z,20.01
2022-08-19T18:34:42.454Z,19.98
2022-08-19T18:37:10.108Z,19.92
2022-08-19T18:39:55.848Z,19.85
2022-08-19T18:42:41.669Z,19.93
2022-08-19T18:45:28.603Z,19.82
2022-08-19T18:48:26.438Z,19.74
2022-08-19T18:50:59.553Z,19.69
2022-08-19T18:53:28.947Z,19.74
2022-08-19T18:55:56.356Z,19.72
2022-08-19T18:58:33.843Z,19.65
2022-08-19T19:01:14.101Z,19.71
2022-08-19T19:03:53.436Z,19.66
2022-08-19T19:06:25.981Z,19.59
2022-08-19T19:08:54.932Z,19.54
2022-08-19T19:11:26.059Z,19.60
2022-08-19T19:13:55.291Z,19.63
2022-08-19T19:16:24.659Z,19.57
2022-08-19T19:18:52.825Z,19.58
2022-08-19T19:21:22.956Z,19.64
2022-08-19T19:23:50.810Z,19.64
2022-08-19T19:26:17.726Z,19.71
2022-08-19T19:28:45.875Z,19.73
2022-08-19T19:31:25.418Z,19.72
2022-08-19T19:33:54.223Z,19.68
2022-08-19T19:36:21.067Z,19.69
2022-08-19T19:38:49.030Z,19.63
2022-08-19T19:41:23.391Z,19.63
2022-08-19T19:44:10.107Z,19.65
2022-08-19T19:46:39.968Z,19.67
2022-08-19T19:49:06.752Z,19.69
2022-08-19T19:51:37.612Z,19.76
2022-08-19T19:54:05.750Z,19.78
2022-08-19T19:56:32.716Z,19.80
2022-08-19T19:58:59.687Z,19.77
2022-08-19T20:01:27.180Z,19.83
2022-08-19T20:03:54.675Z,19.79
2022-08-19T20:06:21.379Z,19.83
2022-08-19T20:09:07.225Z,19.79
2022-08-19T20:11:41.709Z,19.81
2022-08-19T20:14:44.100Z,19.80
2022-08-19T20:17:11.530Z,19.81
2022-08-19T20:19:38.132Z,19.75
2022-08-19T20:22:06.581Z,19.73
2022-08-19T20:24:36.328Z,19.76
2022-08-19T20:27:04.833Z,19.68
2022-08-19T20:29:37.875Z,19.61
2022-08-19T20:32:06.909Z,19.57
2022-08-19T20:34:33.869Z,19.51
2022-08-19T20:37:00.614Z,19.45
2022-08-19T20:39:27.305Z,19.43
2022-08-19T20:41:56.255Z,19.41
2022-08-19T20:44:25.402Z,19.36
2022-08-19T20:46:55.261Z,19.31
2022-08-19T20:49:27.453Z,19.26
2022-08-19T20:51:55.934Z,19.24
2022-08-19T20:54:25.402Z,19.22
2022-08-19T20:56:52.913Z,19.16
2022-08-19T20:59:20.802Z,19.14
2022-08-19T21:01:48.500Z,19.11
2022-08-19T21:04:15.488Z,19.15
2022-08-19T21:06:45.314Z,19.12
2022-08-19T21:09:12.435Z,19.13
2022-08-19T21:11:39.272Z,19.07
2022-08-19T21:14:06.145Z,19.01
2022-08-19T21:16:33.873Z,18.98
2022-08-19T21:19:02.888Z,18.92
2022-08-19T21:21:29.671Z,18.87
2022-08-19T21:23:57.211Z,18.94
2022-08-19T21:26:24.388Z,18.96
2022-08-19T21:28:51.111Z,19.07
2022-08-19T21:31:18.034Z,19.04
2022-08-19T21:33:45.201Z,19.00
2022-08-19T21:36:12.040Z,19.02
2022-08-19T21:38:38.765Z,19.02
2022-08-19T21:41:06.562Z,19.02
2022-08-19T21:43:37.491Z,19.06
2022-08-19T21:46:04.747Z,19.01
2022-08-19T21:48:31.538Z,18.97
2022-08-19T21:51:01.261Z,19.02
2022-08-19T21:53:31.748Z,19.03
2022-08-19T21:56:01.334Z,19.07
2022-08-19T21:58:30.640Z,19.03
2022-08-19T22:01:01.756Z,19.09
2022-08-19T22:03:29.118Z,19.13
2022-08-19T22:05:55.948Z,19.16
2022-08-19T22:08:22.667Z,19.16
2022-08-19T22:10:49.866Z,19.21
2022-08-19T22:13:18.265Z,19.21
2022-08-19T22:15:51.975Z,19.21
2022-08-19T22:18:19.020Z,19.21
2022-08-19T22:20:45.885Z,19.25
2022-08-19T22:23:23.412Z,19.22
2022-08-19T22:26:01.312Z,19.21
2022-08-19T22:28:30.750Z,19.23
2022-08-19T22:30:59.639Z,19.20
2022-08-19T22:33:29.887Z,19.15
2022-08-19T22:35:59.621Z,19.05
2022-08-19T22:38:26.692Z,19.05
2022-08-19T22:40:56.462Z,19.03
2022-08-19T22:43:31.963Z,18.98
2022-08-19T22:46:02.348Z,19.01
2022-08-19T22:48:32.764Z,18.89
2022-08-19T22:51:26.645Z,18.91
2022-08-19T22:53:56.483Z,18.84
2022-08-19T22:56:23.405Z,18.72
2022-08-19T22:58:50.792Z,18.70
2022-08-19T23:01:27.579Z,18.68
2022-08-19T23:04:00.450Z,18.65
2022-08-19T23:06:33.988Z,18.64
2022-08-19T23:09:07.653Z,18.65
2022-08-19T23:11:42.147Z,18.50
2022-08-19T23:14:11.095Z,18.55
2022-08-19T23:16:38.172Z,18.56
2022-08-19T23:19:07.251Z,18.59
2022-08-19T23:21:36.222Z,18.57
2022-08-19T23:24:03.427Z,18.62
2022-08-19T23:26:35.872Z,18.62
2022-08-19T23:29:22.828Z,18.58
2022-08-19T23:31:49.859Z,18.58
2022-08-19T23:34:16.645Z,18.53
2022-08-19T23:36:46.591Z,18.53
2022-08-19T23:39:13.487Z,18.52
2022-08-19T23:41:52.092Z,18.52
2022-08-19T23:44:18.885Z,18.52
2022-08-19T23:46:55.760Z,18.61
2022-08-19T23:49:26.239Z,18.55
2022-08-19T23:51:56.377Z,18.55
2022-08-19T23:54:27.448Z,18.59
2022-08-19T23:57:13.298Z,18.58
2022-08-19T23:59:42.471Z,18.55
